<?xml version="1.0" encoding="UTF-8" standalone="no" ?>
<gpx xmlns="http://www.topografix.com/GPX/1/1" xmlns:xsi="http://www.w3.org/2001/XMLSchema-instance" xsi:schemaLocation="http://www.topografix.com/GPX/1/1 http://www.topografix.com/GPX/1/1/gpx.xsd" version="1.1" creator="VisuGPX - https://www.visugpx.com">
  <metadata>
    <name>Derby des bois</name>
    <desc><![CDATA[course en suisse]]></desc>
  </metadata>
  <trk>
    <name><![CDATA[derby du bois fleury]]></name>
    <desc><![CDATA[12°]]></desc>
    <trkseg>
      <trkpt lat="46.2806" lon="6.16044">
        <ele>412.39999389648</ele>
        <time>2013-03-10T14:28:42.000Z</time>
      </trkpt>
      <trkpt lat="46.2805" lon="6.1605">
        <ele>409.60000610352</ele>
        <time>2013-03-10T14:28:45.000Z</time>
      </trkpt>
      <trkpt lat="46.28027" lon="6.16066">
        <ele>406.60000610352</ele>
        <time>2013-03-10T14:28:50.000Z</time>
      </trkpt>
      <trkpt lat="46.2802" lon="6.16071">
        <ele>406.60000610352</ele>
        <time>2013-03-10T14:28:52.000Z</time>
      </trkpt>
      <trkpt lat="46.28006" lon="6.16063">
        <ele>405.79998779297</ele>
        <time>2013-03-10T14:28:56.000Z</time>
      </trkpt>
      <trkpt lat="46.27995" lon="6.16051">
        <ele>405.79998779297</ele>
        <time>2013-03-10T14:28:59.000Z</time>
      </trkpt>
      <trkpt lat="46.27987" lon="6.16044">
        <ele>405.79998779297</ele>
        <time>2013-03-10T14:29:01.000Z</time>
      </trkpt>
      <trkpt lat="46.27967" lon="6.16023">
        <ele>406.20001220703</ele>
        <time>2013-03-10T14:29:07.000Z</time>
      </trkpt>
      <trkpt lat="46.2796" lon="6.16017">
        <ele>406.60000610352</ele>
        <time>2013-03-10T14:29:09.000Z</time>
      </trkpt>
      <trkpt lat="46.27941" lon="6.15994">
        <ele>409.60000610352</ele>
        <time>2013-03-10T14:29:15.000Z</time>
      </trkpt>
      <trkpt lat="46.27922" lon="6.15969">
        <ele>411</ele>
        <time>2013-03-10T14:29:21.000Z</time>
      </trkpt>
      <trkpt lat="46.27909" lon="6.15954">
        <ele>412.39999389648</ele>
        <time>2013-03-10T14:29:25.000Z</time>
      </trkpt>
      <trkpt lat="46.27907" lon="6.15937">
        <ele>413</ele>
        <time>2013-03-10T14:29:28.000Z</time>
      </trkpt>
      <trkpt lat="46.27911" lon="6.15891">
        <ele>413</ele>
        <time>2013-03-10T14:29:35.000Z</time>
      </trkpt>
      <trkpt lat="46.27912" lon="6.15859">
        <ele>415.39999389648</ele>
        <time>2013-03-10T14:29:40.000Z</time>
      </trkpt>
      <trkpt lat="46.27914" lon="6.15847">
        <ele>415.79998779297</ele>
        <time>2013-03-10T14:29:42.000Z</time>
      </trkpt>
      <trkpt lat="46.27917" lon="6.15834">
        <ele>416.20001220703</ele>
        <time>2013-03-10T14:29:44.000Z</time>
      </trkpt>
      <trkpt lat="46.27921" lon="6.15824">
        <ele>416.79998779297</ele>
        <time>2013-03-10T14:29:46.000Z</time>
      </trkpt>
      <trkpt lat="46.27931" lon="6.15785">
        <ele>417.20001220703</ele>
        <time>2013-03-10T14:29:53.000Z</time>
      </trkpt>
      <trkpt lat="46.27942" lon="6.15754">
        <ele>415.39999389648</ele>
        <time>2013-03-10T14:29:59.000Z</time>
      </trkpt>
      <trkpt lat="46.27949" lon="6.15732">
        <ele>413.79998779297</ele>
        <time>2013-03-10T14:30:03.000Z</time>
      </trkpt>
      <trkpt lat="46.27953" lon="6.15714">
        <ele>413.39999389648</ele>
        <time>2013-03-10T14:30:06.000Z</time>
      </trkpt>
      <trkpt lat="46.27954" lon="6.15675">
        <ele>412</ele>
        <time>2013-03-10T14:30:12.000Z</time>
      </trkpt>
      <trkpt lat="46.27957" lon="6.15648">
        <ele>410.60000610352</ele>
        <time>2013-03-10T14:30:16.000Z</time>
      </trkpt>
      <trkpt lat="46.27968" lon="6.15613">
        <ele>410</ele>
        <time>2013-03-10T14:30:22.000Z</time>
      </trkpt>
      <trkpt lat="46.27974" lon="6.15596">
        <ele>409.60000610352</ele>
        <time>2013-03-10T14:30:25.000Z</time>
      </trkpt>
      <trkpt lat="46.2798" lon="6.15565">
        <ele>412.39999389648</ele>
        <time>2013-03-10T14:30:30.000Z</time>
      </trkpt>
      <trkpt lat="46.27982" lon="6.15553">
        <ele>412.39999389648</ele>
        <time>2013-03-10T14:30:32.000Z</time>
      </trkpt>
      <trkpt lat="46.27984" lon="6.15528">
        <ele>414.39999389648</ele>
        <time>2013-03-10T14:30:36.000Z</time>
      </trkpt>
      <trkpt lat="46.27987" lon="6.15505">
        <ele>415.39999389648</ele>
        <time>2013-03-10T14:30:40.000Z</time>
      </trkpt>
      <trkpt lat="46.27987" lon="6.15492">
        <ele>416.20001220703</ele>
        <time>2013-03-10T14:30:42.000Z</time>
      </trkpt>
      <trkpt lat="46.27991" lon="6.15471">
        <ele>416.79998779297</ele>
        <time>2013-03-10T14:30:46.000Z</time>
      </trkpt>
      <trkpt lat="46.28007" lon="6.1544">
        <ele>417.79998779297</ele>
        <time>2013-03-10T14:30:53.000Z</time>
      </trkpt>
      <trkpt lat="46.28021" lon="6.1542">
        <ele>414.79998779297</ele>
        <time>2013-03-10T14:30:58.000Z</time>
      </trkpt>
      <trkpt lat="46.28026" lon="6.15416">
        <ele>412.39999389648</ele>
        <time>2013-03-10T14:30:59.000Z</time>
      </trkpt>
      <trkpt lat="46.28038" lon="6.15402">
        <ele>413</ele>
        <time>2013-03-10T14:31:03.000Z</time>
      </trkpt>
      <trkpt lat="46.28054" lon="6.15382">
        <ele>415.39999389648</ele>
        <time>2013-03-10T14:31:08.000Z</time>
      </trkpt>
      <trkpt lat="46.28068" lon="6.15359">
        <ele>418.60000610352</ele>
        <time>2013-03-10T14:31:13.000Z</time>
      </trkpt>
      <trkpt lat="46.28074" lon="6.15342">
        <ele>418.20001220703</ele>
        <time>2013-03-10T14:31:16.000Z</time>
      </trkpt>
      <trkpt lat="46.28084" lon="6.15318">
        <ele>419.20001220703</ele>
        <time>2013-03-10T14:31:21.000Z</time>
      </trkpt>
      <trkpt lat="46.28087" lon="6.15291">
        <ele>419.20001220703</ele>
        <time>2013-03-10T14:31:25.000Z</time>
      </trkpt>
      <trkpt lat="46.28085" lon="6.15276">
        <ele>418.60000610352</ele>
        <time>2013-03-10T14:31:27.000Z</time>
      </trkpt>
      <trkpt lat="46.28085" lon="6.15241">
        <ele>417.20001220703</ele>
        <time>2013-03-10T14:31:33.000Z</time>
      </trkpt>
      <trkpt lat="46.28086" lon="6.15231">
        <ele>416.79998779297</ele>
        <time>2013-03-10T14:31:35.000Z</time>
      </trkpt>
      <trkpt lat="46.28096" lon="6.152">
        <ele>416.79998779297</ele>
        <time>2013-03-10T14:31:41.000Z</time>
      </trkpt>
      <trkpt lat="46.28099" lon="6.15172">
        <ele>417.20001220703</ele>
        <time>2013-03-10T14:31:46.000Z</time>
      </trkpt>
      <trkpt lat="46.28101" lon="6.15142">
        <ele>418.60000610352</ele>
        <time>2013-03-10T14:31:51.000Z</time>
      </trkpt>
      <trkpt lat="46.281" lon="6.15122">
        <ele>420.60000610352</ele>
        <time>2013-03-10T14:31:54.000Z</time>
      </trkpt>
      <trkpt lat="46.28098" lon="6.15102">
        <ele>421.60000610352</ele>
        <time>2013-03-10T14:31:57.000Z</time>
      </trkpt>
      <trkpt lat="46.28099" lon="6.15076">
        <ele>422.60000610352</ele>
        <time>2013-03-10T14:32:01.000Z</time>
      </trkpt>
      <trkpt lat="46.28094" lon="6.15052">
        <ele>421.60000610352</ele>
        <time>2013-03-10T14:32:05.000Z</time>
      </trkpt>
      <trkpt lat="46.28088" lon="6.1504">
        <ele>421</ele>
        <time>2013-03-10T14:32:07.000Z</time>
      </trkpt>
      <trkpt lat="46.28061" lon="6.15012">
        <ele>413.79998779297</ele>
        <time>2013-03-10T14:32:14.000Z</time>
      </trkpt>
      <trkpt lat="46.28054" lon="6.15008">
        <ele>412</ele>
        <time>2013-03-10T14:32:16.000Z</time>
      </trkpt>
      <trkpt lat="46.28044" lon="6.15001">
        <ele>409</ele>
        <time>2013-03-10T14:32:19.000Z</time>
      </trkpt>
      <trkpt lat="46.28026" lon="6.14986">
        <ele>404.79998779297</ele>
        <time>2013-03-10T14:32:24.000Z</time>
      </trkpt>
      <trkpt lat="46.28016" lon="6.14964">
        <ele>401.79998779297</ele>
        <time>2013-03-10T14:32:28.000Z</time>
      </trkpt>
      <trkpt lat="46.28011" lon="6.14939">
        <ele>400</ele>
        <time>2013-03-10T14:32:32.000Z</time>
      </trkpt>
      <trkpt lat="46.27997" lon="6.1492">
        <ele>396.60000610352</ele>
        <time>2013-03-10T14:32:37.000Z</time>
      </trkpt>
      <trkpt lat="46.27984" lon="6.14923">
        <ele>392.79998779297</ele>
        <time>2013-03-10T14:32:40.000Z</time>
      </trkpt>
      <trkpt lat="46.27974" lon="6.14929">
        <ele>391.20001220703</ele>
        <time>2013-03-10T14:32:42.000Z</time>
      </trkpt>
      <trkpt lat="46.27965" lon="6.14935">
        <ele>389.79998779297</ele>
        <time>2013-03-10T14:32:44.000Z</time>
      </trkpt>
      <trkpt lat="46.27946" lon="6.14952">
        <ele>387.39999389648</ele>
        <time>2013-03-10T14:32:49.000Z</time>
      </trkpt>
      <trkpt lat="46.27942" lon="6.14955">
        <ele>387.39999389648</ele>
        <time>2013-03-10T14:32:50.000Z</time>
      </trkpt>
      <trkpt lat="46.27929" lon="6.14972">
        <ele>386</ele>
        <time>2013-03-10T14:32:54.000Z</time>
      </trkpt>
      <trkpt lat="46.27932" lon="6.14994">
        <ele>384</ele>
        <time>2013-03-10T14:32:58.000Z</time>
      </trkpt>
      <trkpt lat="46.27939" lon="6.15026">
        <ele>386.39999389648</ele>
        <time>2013-03-10T14:33:03.000Z</time>
      </trkpt>
      <trkpt lat="46.27941" lon="6.1504">
        <ele>385.60000610352</ele>
        <time>2013-03-10T14:33:05.000Z</time>
      </trkpt>
      <trkpt lat="46.27938" lon="6.1507">
        <ele>387.39999389648</ele>
        <time>2013-03-10T14:33:10.000Z</time>
      </trkpt>
      <trkpt lat="46.27937" lon="6.15076">
        <ele>388</ele>
        <time>2013-03-10T14:33:11.000Z</time>
      </trkpt>
      <trkpt lat="46.27932" lon="6.15105">
        <ele>388</ele>
        <time>2013-03-10T14:33:16.000Z</time>
      </trkpt>
      <trkpt lat="46.2793" lon="6.15128">
        <ele>388.39999389648</ele>
        <time>2013-03-10T14:33:20.000Z</time>
      </trkpt>
      <trkpt lat="46.27933" lon="6.15141">
        <ele>385</ele>
        <time>2013-03-10T14:33:22.000Z</time>
      </trkpt>
      <trkpt lat="46.27932" lon="6.15169">
        <ele>384</ele>
        <time>2013-03-10T14:33:27.000Z</time>
      </trkpt>
      <trkpt lat="46.27934" lon="6.15179">
        <ele>386.39999389648</ele>
        <time>2013-03-10T14:33:29.000Z</time>
      </trkpt>
      <trkpt lat="46.27932" lon="6.15204">
        <ele>390.39999389648</ele>
        <time>2013-03-10T14:33:35.000Z</time>
      </trkpt>
      <trkpt lat="46.27927" lon="6.15228">
        <ele>391.79998779297</ele>
        <time>2013-03-10T14:33:39.000Z</time>
      </trkpt>
      <trkpt lat="46.27914" lon="6.15258">
        <ele>392.79998779297</ele>
        <time>2013-03-10T14:33:44.000Z</time>
      </trkpt>
      <trkpt lat="46.27913" lon="6.15263">
        <ele>392.79998779297</ele>
        <time>2013-03-10T14:33:45.000Z</time>
      </trkpt>
      <trkpt lat="46.279" lon="6.15289">
        <ele>392.79998779297</ele>
        <time>2013-03-10T14:33:50.000Z</time>
      </trkpt>
      <trkpt lat="46.27897" lon="6.15294">
        <ele>392.79998779297</ele>
        <time>2013-03-10T14:33:51.000Z</time>
      </trkpt>
      <trkpt lat="46.27883" lon="6.15323">
        <ele>392.79998779297</ele>
        <time>2013-03-10T14:33:57.000Z</time>
      </trkpt>
      <trkpt lat="46.27871" lon="6.15342">
        <ele>391.20001220703</ele>
        <time>2013-03-10T14:34:01.000Z</time>
      </trkpt>
      <trkpt lat="46.27867" lon="6.15354">
        <ele>389.79998779297</ele>
        <time>2013-03-10T14:34:03.000Z</time>
      </trkpt>
      <trkpt lat="46.27866" lon="6.1538">
        <ele>390.39999389648</ele>
        <time>2013-03-10T14:34:07.000Z</time>
      </trkpt>
      <trkpt lat="46.27886" lon="6.15401">
        <ele>393.20001220703</ele>
        <time>2013-03-10T14:34:12.000Z</time>
      </trkpt>
      <trkpt lat="46.27902" lon="6.15418">
        <ele>393.60000610352</ele>
        <time>2013-03-10T14:34:17.000Z</time>
      </trkpt>
      <trkpt lat="46.27913" lon="6.15432">
        <ele>395.20001220703</ele>
        <time>2013-03-10T14:34:21.000Z</time>
      </trkpt>
      <trkpt lat="46.27925" lon="6.15455">
        <ele>395.60000610352</ele>
        <time>2013-03-10T14:34:26.000Z</time>
      </trkpt>
      <trkpt lat="46.27926" lon="6.15477">
        <ele>396.20001220703</ele>
        <time>2013-03-10T14:34:30.000Z</time>
      </trkpt>
      <trkpt lat="46.27928" lon="6.15498">
        <ele>396.20001220703</ele>
        <time>2013-03-10T14:34:34.000Z</time>
      </trkpt>
      <trkpt lat="46.27944" lon="6.15531">
        <ele>398.60000610352</ele>
        <time>2013-03-10T14:34:41.000Z</time>
      </trkpt>
      <trkpt lat="46.27945" lon="6.15536">
        <ele>399</ele>
        <time>2013-03-10T14:34:42.000Z</time>
      </trkpt>
      <trkpt lat="46.2795" lon="6.15573">
        <ele>404.79998779297</ele>
        <time>2013-03-10T14:34:49.000Z</time>
      </trkpt>
      <trkpt lat="46.27952" lon="6.15599">
        <ele>407.20001220703</ele>
        <time>2013-03-10T14:34:54.000Z</time>
      </trkpt>
      <trkpt lat="46.27952" lon="6.1562">
        <ele>409</ele>
        <time>2013-03-10T14:34:59.000Z</time>
      </trkpt>
      <trkpt lat="46.2795" lon="6.15637">
        <ele>411.39999389648</ele>
        <time>2013-03-10T14:35:04.000Z</time>
      </trkpt>
      <trkpt lat="46.27949" lon="6.1565">
        <ele>413.39999389648</ele>
        <time>2013-03-10T14:35:08.000Z</time>
      </trkpt>
      <trkpt lat="46.27949" lon="6.15661">
        <ele>409.60000610352</ele>
        <time>2013-03-10T14:35:13.000Z</time>
      </trkpt>
      <trkpt lat="46.27946" lon="6.15661">
        <ele>407.60000610352</ele>
        <time>2013-03-10T14:35:14.000Z</time>
      </trkpt>
      <trkpt lat="46.27923" lon="6.15668">
        <ele>403.79998779297</ele>
        <time>2013-03-10T14:35:20.000Z</time>
      </trkpt>
      <trkpt lat="46.27913" lon="6.15679">
        <ele>405.20001220703</ele>
        <time>2013-03-10T14:35:23.000Z</time>
      </trkpt>
      <trkpt lat="46.27906" lon="6.15694">
        <ele>402.79998779297</ele>
        <time>2013-03-10T14:35:27.000Z</time>
      </trkpt>
      <trkpt lat="46.27899" lon="6.15712">
        <ele>406.60000610352</ele>
        <time>2013-03-10T14:35:31.000Z</time>
      </trkpt>
      <trkpt lat="46.27891" lon="6.1573">
        <ele>405.20001220703</ele>
        <time>2013-03-10T14:35:35.000Z</time>
      </trkpt>
      <trkpt lat="46.27881" lon="6.15751">
        <ele>404.79998779297</ele>
        <time>2013-03-10T14:35:39.000Z</time>
      </trkpt>
      <trkpt lat="46.27878" lon="6.15767">
        <ele>405.20001220703</ele>
        <time>2013-03-10T14:35:42.000Z</time>
      </trkpt>
      <trkpt lat="46.27878" lon="6.15773">
        <ele>406.20001220703</ele>
        <time>2013-03-10T14:35:43.000Z</time>
      </trkpt>
      <trkpt lat="46.27885" lon="6.15802">
        <ele>409</ele>
        <time>2013-03-10T14:35:48.000Z</time>
      </trkpt>
      <trkpt lat="46.27892" lon="6.15823">
        <ele>408.60000610352</ele>
        <time>2013-03-10T14:35:52.000Z</time>
      </trkpt>
      <trkpt lat="46.27897" lon="6.15832">
        <ele>408.20001220703</ele>
        <time>2013-03-10T14:35:54.000Z</time>
      </trkpt>
      <trkpt lat="46.27908" lon="6.1585">
        <ele>409</ele>
        <time>2013-03-10T14:35:58.000Z</time>
      </trkpt>
      <trkpt lat="46.27916" lon="6.15869">
        <ele>410.60000610352</ele>
        <time>2013-03-10T14:36:02.000Z</time>
      </trkpt>
      <trkpt lat="46.27916" lon="6.15888">
        <ele>411.39999389648</ele>
        <time>2013-03-10T14:36:05.000Z</time>
      </trkpt>
      <trkpt lat="46.27916" lon="6.15911">
        <ele>411</ele>
        <time>2013-03-10T14:36:09.000Z</time>
      </trkpt>
      <trkpt lat="46.27915" lon="6.15916">
        <ele>410.60000610352</ele>
        <time>2013-03-10T14:36:10.000Z</time>
      </trkpt>
      <trkpt lat="46.27911" lon="6.15948">
        <ele>409</ele>
        <time>2013-03-10T14:36:16.000Z</time>
      </trkpt>
      <trkpt lat="46.27917" lon="6.15961">
        <ele>408.60000610352</ele>
        <time>2013-03-10T14:36:19.000Z</time>
      </trkpt>
      <trkpt lat="46.27929" lon="6.15977">
        <ele>407.60000610352</ele>
        <time>2013-03-10T14:36:23.000Z</time>
      </trkpt>
      <trkpt lat="46.27941" lon="6.15995">
        <ele>407.20001220703</ele>
        <time>2013-03-10T14:36:27.000Z</time>
      </trkpt>
      <trkpt lat="46.27959" lon="6.16015">
        <ele>404.20001220703</ele>
        <time>2013-03-10T14:36:32.000Z</time>
      </trkpt>
      <trkpt lat="46.27972" lon="6.1603">
        <ele>404.20001220703</ele>
        <time>2013-03-10T14:36:36.000Z</time>
      </trkpt>
      <trkpt lat="46.27981" lon="6.16042">
        <ele>404.79998779297</ele>
        <time>2013-03-10T14:36:39.000Z</time>
      </trkpt>
      <trkpt lat="46.27989" lon="6.16049">
        <ele>404.79998779297</ele>
        <time>2013-03-10T14:36:41.000Z</time>
      </trkpt>
      <trkpt lat="46.27995" lon="6.16056">
        <ele>405.20001220703</ele>
        <time>2013-03-10T14:36:43.000Z</time>
      </trkpt>
      <trkpt lat="46.28009" lon="6.16059">
        <ele>405.20001220703</ele>
        <time>2013-03-10T14:36:47.000Z</time>
      </trkpt>
      <trkpt lat="46.28017" lon="6.16038">
        <ele>406.20001220703</ele>
        <time>2013-03-10T14:36:51.000Z</time>
      </trkpt>
      <trkpt lat="46.28023" lon="6.16015">
        <ele>405.79998779297</ele>
        <time>2013-03-10T14:36:55.000Z</time>
      </trkpt>
      <trkpt lat="46.28032" lon="6.15995">
        <ele>405.20001220703</ele>
        <time>2013-03-10T14:36:59.000Z</time>
      </trkpt>
      <trkpt lat="46.2804" lon="6.15973">
        <ele>404.20001220703</ele>
        <time>2013-03-10T14:37:03.000Z</time>
      </trkpt>
      <trkpt lat="46.28049" lon="6.15944">
        <ele>406.60000610352</ele>
        <time>2013-03-10T14:37:09.000Z</time>
      </trkpt>
      <trkpt lat="46.2805" lon="6.1594">
        <ele>407.20001220703</ele>
        <time>2013-03-10T14:37:10.000Z</time>
      </trkpt>
      <trkpt lat="46.28034" lon="6.15934">
        <ele>408.60000610352</ele>
        <time>2013-03-10T14:37:15.000Z</time>
      </trkpt>
      <trkpt lat="46.28017" lon="6.1593">
        <ele>410</ele>
        <time>2013-03-10T14:37:19.000Z</time>
      </trkpt>
      <trkpt lat="46.28006" lon="6.15924">
        <ele>410.60000610352</ele>
        <time>2013-03-10T14:37:22.000Z</time>
      </trkpt>
      <trkpt lat="46.27992" lon="6.15916">
        <ele>410.60000610352</ele>
        <time>2013-03-10T14:37:26.000Z</time>
      </trkpt>
      <trkpt lat="46.27971" lon="6.15901">
        <ele>411</ele>
        <time>2013-03-10T14:37:32.000Z</time>
      </trkpt>
      <trkpt lat="46.27953" lon="6.15888">
        <ele>413</ele>
        <time>2013-03-10T14:37:37.000Z</time>
      </trkpt>
      <trkpt lat="46.27937" lon="6.15879">
        <ele>413.39999389648</ele>
        <time>2013-03-10T14:37:41.000Z</time>
      </trkpt>
      <trkpt lat="46.27921" lon="6.15867">
        <ele>413.79998779297</ele>
        <time>2013-03-10T14:37:46.000Z</time>
      </trkpt>
      <trkpt lat="46.27917" lon="6.15845">
        <ele>413.79998779297</ele>
        <time>2013-03-10T14:37:50.000Z</time>
      </trkpt>
      <trkpt lat="46.27921" lon="6.15823">
        <ele>414.39999389648</ele>
        <time>2013-03-10T14:37:54.000Z</time>
      </trkpt>
      <trkpt lat="46.27922" lon="6.15817">
        <ele>414.39999389648</ele>
        <time>2013-03-10T14:37:55.000Z</time>
      </trkpt>
      <trkpt lat="46.27931" lon="6.15789">
        <ele>414.39999389648</ele>
        <time>2013-03-10T14:38:01.000Z</time>
      </trkpt>
      <trkpt lat="46.27937" lon="6.15769">
        <ele>413</ele>
        <time>2013-03-10T14:38:05.000Z</time>
      </trkpt>
      <trkpt lat="46.27943" lon="6.15746">
        <ele>413.39999389648</ele>
        <time>2013-03-10T14:38:10.000Z</time>
      </trkpt>
      <trkpt lat="46.27949" lon="6.15721">
        <ele>413.39999389648</ele>
        <time>2013-03-10T14:38:15.000Z</time>
      </trkpt>
      <trkpt lat="46.27951" lon="6.15697">
        <ele>413.79998779297</ele>
        <time>2013-03-10T14:38:19.000Z</time>
      </trkpt>
      <trkpt lat="46.27953" lon="6.15673">
        <ele>414.39999389648</ele>
        <time>2013-03-10T14:38:23.000Z</time>
      </trkpt>
      <trkpt lat="46.27954" lon="6.15658">
        <ele>413.79998779297</ele>
        <time>2013-03-10T14:38:25.000Z</time>
      </trkpt>
      <trkpt lat="46.2796" lon="6.15636">
        <ele>413.39999389648</ele>
        <time>2013-03-10T14:38:29.000Z</time>
      </trkpt>
      <trkpt lat="46.27971" lon="6.156">
        <ele>414.39999389648</ele>
        <time>2013-03-10T14:38:36.000Z</time>
      </trkpt>
      <trkpt lat="46.27972" lon="6.15594">
        <ele>414.79998779297</ele>
        <time>2013-03-10T14:38:37.000Z</time>
      </trkpt>
      <trkpt lat="46.27978" lon="6.15571">
        <ele>414.79998779297</ele>
        <time>2013-03-10T14:38:41.000Z</time>
      </trkpt>
      <trkpt lat="46.27981" lon="6.15542">
        <ele>413.39999389648</ele>
        <time>2013-03-10T14:38:46.000Z</time>
      </trkpt>
      <trkpt lat="46.27985" lon="6.15525">
        <ele>412.39999389648</ele>
        <time>2013-03-10T14:38:49.000Z</time>
      </trkpt>
      <trkpt lat="46.27988" lon="6.15499">
        <ele>411</ele>
        <time>2013-03-10T14:38:54.000Z</time>
      </trkpt>
      <trkpt lat="46.27995" lon="6.15467">
        <ele>412.39999389648</ele>
        <time>2013-03-10T14:39:00.000Z</time>
      </trkpt>
      <trkpt lat="46.28004" lon="6.1545">
        <ele>411.39999389648</ele>
        <time>2013-03-10T14:39:04.000Z</time>
      </trkpt>
      <trkpt lat="46.28017" lon="6.15429">
        <ele>413.79998779297</ele>
        <time>2013-03-10T14:39:09.000Z</time>
      </trkpt>
      <trkpt lat="46.28033" lon="6.15413">
        <ele>409.60000610352</ele>
        <time>2013-03-10T14:39:14.000Z</time>
      </trkpt>
      <trkpt lat="46.28045" lon="6.15398">
        <ele>408.20001220703</ele>
        <time>2013-03-10T14:39:19.000Z</time>
      </trkpt>
      <trkpt lat="46.28056" lon="6.15384">
        <ele>407.60000610352</ele>
        <time>2013-03-10T14:39:23.000Z</time>
      </trkpt>
      <trkpt lat="46.2807" lon="6.15363">
        <ele>411.39999389648</ele>
        <time>2013-03-10T14:39:28.000Z</time>
      </trkpt>
      <trkpt lat="46.2808" lon="6.15341">
        <ele>411</ele>
        <time>2013-03-10T14:39:33.000Z</time>
      </trkpt>
      <trkpt lat="46.28086" lon="6.15328">
        <ele>411.39999389648</ele>
        <time>2013-03-10T14:39:36.000Z</time>
      </trkpt>
      <trkpt lat="46.28086" lon="6.15309">
        <ele>411</ele>
        <time>2013-03-10T14:39:40.000Z</time>
      </trkpt>
      <trkpt lat="46.28085" lon="6.15285">
        <ele>409.60000610352</ele>
        <time>2013-03-10T14:39:43.000Z</time>
      </trkpt>
      <trkpt lat="46.28082" lon="6.15257">
        <ele>406.60000610352</ele>
        <time>2013-03-10T14:39:47.000Z</time>
      </trkpt>
      <trkpt lat="46.28083" lon="6.15232">
        <ele>408.20001220703</ele>
        <time>2013-03-10T14:39:52.000Z</time>
      </trkpt>
      <trkpt lat="46.28091" lon="6.15198">
        <ele>411</ele>
        <time>2013-03-10T14:39:59.000Z</time>
      </trkpt>
      <trkpt lat="46.28097" lon="6.15173">
        <ele>413</ele>
        <time>2013-03-10T14:40:04.000Z</time>
      </trkpt>
      <trkpt lat="46.28099" lon="6.15147">
        <ele>417.20001220703</ele>
        <time>2013-03-10T14:40:09.000Z</time>
      </trkpt>
      <trkpt lat="46.28099" lon="6.15119">
        <ele>419.20001220703</ele>
        <time>2013-03-10T14:40:14.000Z</time>
      </trkpt>
      <trkpt lat="46.28099" lon="6.15088">
        <ele>419.60000610352</ele>
        <time>2013-03-10T14:40:19.000Z</time>
      </trkpt>
      <trkpt lat="46.281" lon="6.15083">
        <ele>420.60000610352</ele>
        <time>2013-03-10T14:40:20.000Z</time>
      </trkpt>
      <trkpt lat="46.28111" lon="6.15054">
        <ele>419.60000610352</ele>
        <time>2013-03-10T14:40:26.000Z</time>
      </trkpt>
      <trkpt lat="46.28118" lon="6.15044">
        <ele>422</ele>
        <time>2013-03-10T14:40:29.000Z</time>
      </trkpt>
      <trkpt lat="46.28135" lon="6.15027">
        <ele>422.60000610352</ele>
        <time>2013-03-10T14:40:35.000Z</time>
      </trkpt>
      <trkpt lat="46.28149" lon="6.1502">
        <ele>419.60000610352</ele>
        <time>2013-03-10T14:40:39.000Z</time>
      </trkpt>
      <trkpt lat="46.28166" lon="6.15012">
        <ele>415.79998779297</ele>
        <time>2013-03-10T14:40:44.000Z</time>
      </trkpt>
      <trkpt lat="46.28184" lon="6.15">
        <ele>413.39999389648</ele>
        <time>2013-03-10T14:40:49.000Z</time>
      </trkpt>
      <trkpt lat="46.28197" lon="6.1499">
        <ele>412.39999389648</ele>
        <time>2013-03-10T14:40:53.000Z</time>
      </trkpt>
      <trkpt lat="46.2821" lon="6.1498">
        <ele>412</ele>
        <time>2013-03-10T14:40:57.000Z</time>
      </trkpt>
      <trkpt lat="46.28223" lon="6.14967">
        <ele>412</ele>
        <time>2013-03-10T14:41:01.000Z</time>
      </trkpt>
      <trkpt lat="46.2824" lon="6.14952">
        <ele>414.79998779297</ele>
        <time>2013-03-10T14:41:06.000Z</time>
      </trkpt>
      <trkpt lat="46.28252" lon="6.14942">
        <ele>413</ele>
        <time>2013-03-10T14:41:09.000Z</time>
      </trkpt>
      <trkpt lat="46.28254" lon="6.14932">
        <ele>410</ele>
        <time>2013-03-10T14:41:12.000Z</time>
      </trkpt>
      <trkpt lat="46.28244" lon="6.14931">
        <ele>408.60000610352</ele>
        <time>2013-03-10T14:41:16.000Z</time>
      </trkpt>
      <trkpt lat="46.2824" lon="6.14933">
        <ele>408.60000610352</ele>
        <time>2013-03-10T14:41:17.000Z</time>
      </trkpt>
      <trkpt lat="46.28218" lon="6.1495">
        <ele>406.60000610352</ele>
        <time>2013-03-10T14:41:24.000Z</time>
      </trkpt>
      <trkpt lat="46.28201" lon="6.1496">
        <ele>406.60000610352</ele>
        <time>2013-03-10T14:41:29.000Z</time>
      </trkpt>
      <trkpt lat="46.28183" lon="6.14966">
        <ele>408.20001220703</ele>
        <time>2013-03-10T14:41:34.000Z</time>
      </trkpt>
      <trkpt lat="46.28165" lon="6.14969">
        <ele>410.60000610352</ele>
        <time>2013-03-10T14:41:39.000Z</time>
      </trkpt>
      <trkpt lat="46.28156" lon="6.14962">
        <ele>408.20001220703</ele>
        <time>2013-03-10T14:41:42.000Z</time>
      </trkpt>
      <trkpt lat="46.28159" lon="6.14939">
        <ele>409.60000610352</ele>
        <time>2013-03-10T14:41:46.000Z</time>
      </trkpt>
      <trkpt lat="46.28167" lon="6.14915">
        <ele>412.39999389648</ele>
        <time>2013-03-10T14:41:51.000Z</time>
      </trkpt>
      <trkpt lat="46.28176" lon="6.14899">
        <ele>413.39999389648</ele>
        <time>2013-03-10T14:41:55.000Z</time>
      </trkpt>
      <trkpt lat="46.28188" lon="6.14877">
        <ele>413</ele>
        <time>2013-03-10T14:42:00.000Z</time>
      </trkpt>
      <trkpt lat="46.282" lon="6.14859">
        <ele>413.39999389648</ele>
        <time>2013-03-10T14:42:05.000Z</time>
      </trkpt>
      <trkpt lat="46.28212" lon="6.14837">
        <ele>413.39999389648</ele>
        <time>2013-03-10T14:42:10.000Z</time>
      </trkpt>
      <trkpt lat="46.28223" lon="6.14813">
        <ele>412.39999389648</ele>
        <time>2013-03-10T14:42:15.000Z</time>
      </trkpt>
      <trkpt lat="46.28225" lon="6.14791">
        <ele>413</ele>
        <time>2013-03-10T14:42:19.000Z</time>
      </trkpt>
      <trkpt lat="46.28224" lon="6.1478">
        <ele>413</ele>
        <time>2013-03-10T14:42:21.000Z</time>
      </trkpt>
      <trkpt lat="46.28223" lon="6.14747">
        <ele>412</ele>
        <time>2013-03-10T14:42:27.000Z</time>
      </trkpt>
      <trkpt lat="46.2822" lon="6.14721">
        <ele>411.39999389648</ele>
        <time>2013-03-10T14:42:31.000Z</time>
      </trkpt>
      <trkpt lat="46.28215" lon="6.14698">
        <ele>411.39999389648</ele>
        <time>2013-03-10T14:42:35.000Z</time>
      </trkpt>
      <trkpt lat="46.28211" lon="6.14659">
        <ele>413</ele>
        <time>2013-03-10T14:42:42.000Z</time>
      </trkpt>
      <trkpt lat="46.2821" lon="6.14638">
        <ele>413.39999389648</ele>
        <time>2013-03-10T14:42:46.000Z</time>
      </trkpt>
      <trkpt lat="46.28206" lon="6.1461">
        <ele>413.39999389648</ele>
        <time>2013-03-10T14:42:51.000Z</time>
      </trkpt>
      <trkpt lat="46.28198" lon="6.14584">
        <ele>413.79998779297</ele>
        <time>2013-03-10T14:42:56.000Z</time>
      </trkpt>
      <trkpt lat="46.28195" lon="6.14573">
        <ele>412.39999389648</ele>
        <time>2013-03-10T14:42:58.000Z</time>
      </trkpt>
      <trkpt lat="46.2819" lon="6.14543">
        <ele>414.39999389648</ele>
        <time>2013-03-10T14:43:03.000Z</time>
      </trkpt>
      <trkpt lat="46.28189" lon="6.14537">
        <ele>414.39999389648</ele>
        <time>2013-03-10T14:43:04.000Z</time>
      </trkpt>
      <trkpt lat="46.28187" lon="6.14503">
        <ele>413.39999389648</ele>
        <time>2013-03-10T14:43:10.000Z</time>
      </trkpt>
      <trkpt lat="46.28184" lon="6.14478">
        <ele>414.79998779297</ele>
        <time>2013-03-10T14:43:15.000Z</time>
      </trkpt>
      <trkpt lat="46.28184" lon="6.14457">
        <ele>415.39999389648</ele>
        <time>2013-03-10T14:43:19.000Z</time>
      </trkpt>
      <trkpt lat="46.28183" lon="6.14437">
        <ele>416.20001220703</ele>
        <time>2013-03-10T14:43:23.000Z</time>
      </trkpt>
      <trkpt lat="46.28174" lon="6.14426">
        <ele>418.20001220703</ele>
        <time>2013-03-10T14:43:27.000Z</time>
      </trkpt>
      <trkpt lat="46.28149" lon="6.14422">
        <ele>418.20001220703</ele>
        <time>2013-03-10T14:43:33.000Z</time>
      </trkpt>
      <trkpt lat="46.28136" lon="6.14423">
        <ele>417.20001220703</ele>
        <time>2013-03-10T14:43:36.000Z</time>
      </trkpt>
      <trkpt lat="46.28119" lon="6.14423">
        <ele>414.79998779297</ele>
        <time>2013-03-10T14:43:40.000Z</time>
      </trkpt>
      <trkpt lat="46.281" lon="6.14437">
        <ele>411</ele>
        <time>2013-03-10T14:43:45.000Z</time>
      </trkpt>
      <trkpt lat="46.28095" lon="6.14455">
        <ele>408.60000610352</ele>
        <time>2013-03-10T14:43:48.000Z</time>
      </trkpt>
      <trkpt lat="46.28098" lon="6.14483">
        <ele>405.20001220703</ele>
        <time>2013-03-10T14:43:52.000Z</time>
      </trkpt>
      <trkpt lat="46.281" lon="6.14517">
        <ele>404.20001220703</ele>
        <time>2013-03-10T14:43:57.000Z</time>
      </trkpt>
      <trkpt lat="46.28104" lon="6.14542">
        <ele>402.39999389648</ele>
        <time>2013-03-10T14:44:01.000Z</time>
      </trkpt>
      <trkpt lat="46.28107" lon="6.14553">
        <ele>401.79998779297</ele>
        <time>2013-03-10T14:44:03.000Z</time>
      </trkpt>
      <trkpt lat="46.28115" lon="6.14587">
        <ele>400.39999389648</ele>
        <time>2013-03-10T14:44:09.000Z</time>
      </trkpt>
      <trkpt lat="46.28116" lon="6.14605">
        <ele>401</ele>
        <time>2013-03-10T14:44:12.000Z</time>
      </trkpt>
      <trkpt lat="46.28116" lon="6.14624">
        <ele>401.79998779297</ele>
        <time>2013-03-10T14:44:15.000Z</time>
      </trkpt>
      <trkpt lat="46.28118" lon="6.14653">
        <ele>402.79998779297</ele>
        <time>2013-03-10T14:44:20.000Z</time>
      </trkpt>
      <trkpt lat="46.28119" lon="6.14659">
        <ele>403.79998779297</ele>
        <time>2013-03-10T14:44:21.000Z</time>
      </trkpt>
      <trkpt lat="46.28119" lon="6.14694">
        <ele>404.20001220703</ele>
        <time>2013-03-10T14:44:27.000Z</time>
      </trkpt>
      <trkpt lat="46.28119" lon="6.14716">
        <ele>404.79998779297</ele>
        <time>2013-03-10T14:44:31.000Z</time>
      </trkpt>
      <trkpt lat="46.28117" lon="6.14742">
        <ele>405.79998779297</ele>
        <time>2013-03-10T14:44:35.000Z</time>
      </trkpt>
      <trkpt lat="46.28115" lon="6.14753">
        <ele>405.20001220703</ele>
        <time>2013-03-10T14:44:37.000Z</time>
      </trkpt>
      <trkpt lat="46.28111" lon="6.14775">
        <ele>404.79998779297</ele>
        <time>2013-03-10T14:44:41.000Z</time>
      </trkpt>
      <trkpt lat="46.28101" lon="6.14803">
        <ele>401.39999389648</ele>
        <time>2013-03-10T14:44:47.000Z</time>
      </trkpt>
      <trkpt lat="46.28089" lon="6.14832">
        <ele>400.39999389648</ele>
        <time>2013-03-10T14:44:53.000Z</time>
      </trkpt>
      <trkpt lat="46.2808" lon="6.14852">
        <ele>401</ele>
        <time>2013-03-10T14:44:57.000Z</time>
      </trkpt>
      <trkpt lat="46.28069" lon="6.14869">
        <ele>400</ele>
        <time>2013-03-10T14:45:01.000Z</time>
      </trkpt>
      <trkpt lat="46.28052" lon="6.14882">
        <ele>401.79998779297</ele>
        <time>2013-03-10T14:45:06.000Z</time>
      </trkpt>
      <trkpt lat="46.28045" lon="6.14888">
        <ele>403.39999389648</ele>
        <time>2013-03-10T14:45:08.000Z</time>
      </trkpt>
      <trkpt lat="46.28024" lon="6.14908">
        <ele>404.79998779297</ele>
        <time>2013-03-10T14:45:14.000Z</time>
      </trkpt>
      <trkpt lat="46.2802" lon="6.14911">
        <ele>404.79998779297</ele>
        <time>2013-03-10T14:45:15.000Z</time>
      </trkpt>
      <trkpt lat="46.28005" lon="6.1492">
        <ele>404.79998779297</ele>
        <time>2013-03-10T14:45:20.000Z</time>
      </trkpt>
      <trkpt lat="46.27985" lon="6.14933">
        <ele>406.60000610352</ele>
        <time>2013-03-10T14:45:26.000Z</time>
      </trkpt>
      <trkpt lat="46.27968" lon="6.14943">
        <ele>408.60000610352</ele>
        <time>2013-03-10T14:45:31.000Z</time>
      </trkpt>
      <trkpt lat="46.27951" lon="6.14958">
        <ele>410.60000610352</ele>
        <time>2013-03-10T14:45:36.000Z</time>
      </trkpt>
      <trkpt lat="46.27933" lon="6.14979">
        <ele>411.39999389648</ele>
        <time>2013-03-10T14:45:42.000Z</time>
      </trkpt>
      <trkpt lat="46.27931" lon="6.14982">
        <ele>410.60000610352</ele>
        <time>2013-03-10T14:45:43.000Z</time>
      </trkpt>
      <trkpt lat="46.27936" lon="6.15006">
        <ele>404.20001220703</ele>
        <time>2013-03-10T14:45:48.000Z</time>
      </trkpt>
      <trkpt lat="46.27941" lon="6.15036">
        <ele>397.60000610352</ele>
        <time>2013-03-10T14:45:53.000Z</time>
      </trkpt>
      <trkpt lat="46.27938" lon="6.15058">
        <ele>394.20001220703</ele>
        <time>2013-03-10T14:45:57.000Z</time>
      </trkpt>
      <trkpt lat="46.27935" lon="6.15087">
        <ele>392.20001220703</ele>
        <time>2013-03-10T14:46:02.000Z</time>
      </trkpt>
      <trkpt lat="46.27933" lon="6.15097">
        <ele>390.79998779297</ele>
        <time>2013-03-10T14:46:04.000Z</time>
      </trkpt>
      <trkpt lat="46.2793" lon="6.15121">
        <ele>390.39999389648</ele>
        <time>2013-03-10T14:46:09.000Z</time>
      </trkpt>
      <trkpt lat="46.27933" lon="6.15144">
        <ele>392.20001220703</ele>
        <time>2013-03-10T14:46:13.000Z</time>
      </trkpt>
      <trkpt lat="46.27935" lon="6.15168">
        <ele>393.20001220703</ele>
        <time>2013-03-10T14:46:18.000Z</time>
      </trkpt>
      <trkpt lat="46.27937" lon="6.15185">
        <ele>391.79998779297</ele>
        <time>2013-03-10T14:46:22.000Z</time>
      </trkpt>
      <trkpt lat="46.27936" lon="6.15194">
        <ele>391.20001220703</ele>
        <time>2013-03-10T14:46:24.000Z</time>
      </trkpt>
      <trkpt lat="46.2793" lon="6.15219">
        <ele>396.60000610352</ele>
        <time>2013-03-10T14:46:29.000Z</time>
      </trkpt>
      <trkpt lat="46.27925" lon="6.15237">
        <ele>396.60000610352</ele>
        <time>2013-03-10T14:46:32.000Z</time>
      </trkpt>
      <trkpt lat="46.27917" lon="6.15264">
        <ele>397.60000610352</ele>
        <time>2013-03-10T14:46:37.000Z</time>
      </trkpt>
      <trkpt lat="46.27902" lon="6.15295">
        <ele>397</ele>
        <time>2013-03-10T14:46:44.000Z</time>
      </trkpt>
      <trkpt lat="46.27895" lon="6.15314">
        <ele>397</ele>
        <time>2013-03-10T14:46:48.000Z</time>
      </trkpt>
      <trkpt lat="46.27886" lon="6.15334">
        <ele>398.60000610352</ele>
        <time>2013-03-10T14:46:52.000Z</time>
      </trkpt>
      <trkpt lat="46.27875" lon="6.15354">
        <ele>398.60000610352</ele>
        <time>2013-03-10T14:46:56.000Z</time>
      </trkpt>
      <trkpt lat="46.27869" lon="6.1538">
        <ele>399</ele>
        <time>2013-03-10T14:47:01.000Z</time>
      </trkpt>
      <trkpt lat="46.27876" lon="6.15391">
        <ele>397.60000610352</ele>
        <time>2013-03-10T14:47:04.000Z</time>
      </trkpt>
      <trkpt lat="46.27884" lon="6.15402">
        <ele>396.60000610352</ele>
        <time>2013-03-10T14:47:07.000Z</time>
      </trkpt>
      <trkpt lat="46.27887" lon="6.15405">
        <ele>396.20001220703</ele>
        <time>2013-03-10T14:47:08.000Z</time>
      </trkpt>
      <trkpt lat="46.27901" lon="6.15421">
        <ele>395.60000610352</ele>
        <time>2013-03-10T14:47:13.000Z</time>
      </trkpt>
      <trkpt lat="46.27915" lon="6.15437">
        <ele>396.60000610352</ele>
        <time>2013-03-10T14:47:18.000Z</time>
      </trkpt>
      <trkpt lat="46.27927" lon="6.15458">
        <ele>394.60000610352</ele>
        <time>2013-03-10T14:47:23.000Z</time>
      </trkpt>
      <trkpt lat="46.27929" lon="6.15476">
        <ele>393.20001220703</ele>
        <time>2013-03-10T14:47:27.000Z</time>
      </trkpt>
      <trkpt lat="46.27933" lon="6.155">
        <ele>393.20001220703</ele>
        <time>2013-03-10T14:47:32.000Z</time>
      </trkpt>
      <trkpt lat="46.27943" lon="6.15522">
        <ele>394.20001220703</ele>
        <time>2013-03-10T14:47:37.000Z</time>
      </trkpt>
      <trkpt lat="46.27949" lon="6.1554">
        <ele>394.60000610352</ele>
        <time>2013-03-10T14:47:41.000Z</time>
      </trkpt>
      <trkpt lat="46.27953" lon="6.15564">
        <ele>395.60000610352</ele>
        <time>2013-03-10T14:47:46.000Z</time>
      </trkpt>
      <trkpt lat="46.27955" lon="6.15588">
        <ele>398</ele>
        <time>2013-03-10T14:47:51.000Z</time>
      </trkpt>
      <trkpt lat="46.27955" lon="6.15611">
        <ele>400.39999389648</ele>
        <time>2013-03-10T14:47:56.000Z</time>
      </trkpt>
      <trkpt lat="46.27954" lon="6.15628">
        <ele>404.20001220703</ele>
        <time>2013-03-10T14:48:01.000Z</time>
      </trkpt>
      <trkpt lat="46.27954" lon="6.15634">
        <ele>404.79998779297</ele>
        <time>2013-03-10T14:48:03.000Z</time>
      </trkpt>
      <trkpt lat="46.27954" lon="6.15654">
        <ele>409.60000610352</ele>
        <time>2013-03-10T14:48:09.000Z</time>
      </trkpt>
      <trkpt lat="46.27947" lon="6.15662">
        <ele>409.60000610352</ele>
        <time>2013-03-10T14:48:13.000Z</time>
      </trkpt>
      <trkpt lat="46.27933" lon="6.15666">
        <ele>409.60000610352</ele>
        <time>2013-03-10T14:48:17.000Z</time>
      </trkpt>
      <trkpt lat="46.2792" lon="6.15675">
        <ele>412</ele>
        <time>2013-03-10T14:48:21.000Z</time>
      </trkpt>
      <trkpt lat="46.27909" lon="6.1569">
        <ele>414.79998779297</ele>
        <time>2013-03-10T14:48:26.000Z</time>
      </trkpt>
      <trkpt lat="46.27903" lon="6.15714">
        <ele>417.20001220703</ele>
        <time>2013-03-10T14:48:31.000Z</time>
      </trkpt>
      <trkpt lat="46.27896" lon="6.1573">
        <ele>417.79998779297</ele>
        <time>2013-03-10T14:48:35.000Z</time>
      </trkpt>
      <trkpt lat="46.27887" lon="6.15745">
        <ele>413.79998779297</ele>
        <time>2013-03-10T14:48:39.000Z</time>
      </trkpt>
      <trkpt lat="46.27881" lon="6.15764">
        <ele>413</ele>
        <time>2013-03-10T14:48:43.000Z</time>
      </trkpt>
      <trkpt lat="46.27884" lon="6.15783">
        <ele>414.39999389648</ele>
        <time>2013-03-10T14:48:47.000Z</time>
      </trkpt>
      <trkpt lat="46.27885" lon="6.15789">
        <ele>414.39999389648</ele>
        <time>2013-03-10T14:48:48.000Z</time>
      </trkpt>
      <trkpt lat="46.27892" lon="6.15823">
        <ele>415.39999389648</ele>
        <time>2013-03-10T14:48:54.000Z</time>
      </trkpt>
      <trkpt lat="46.27894" lon="6.15834">
        <ele>416.79998779297</ele>
        <time>2013-03-10T14:48:56.000Z</time>
      </trkpt>
      <trkpt lat="46.27905" lon="6.15857">
        <ele>418.20001220703</ele>
        <time>2013-03-10T14:49:01.000Z</time>
      </trkpt>
      <trkpt lat="46.27912" lon="6.15878">
        <ele>418.60000610352</ele>
        <time>2013-03-10T14:49:05.000Z</time>
      </trkpt>
      <trkpt lat="46.27912" lon="6.15906">
        <ele>419.20001220703</ele>
        <time>2013-03-10T14:49:10.000Z</time>
      </trkpt>
      <trkpt lat="46.27909" lon="6.15921">
        <ele>419.60000610352</ele>
        <time>2013-03-10T14:49:13.000Z</time>
      </trkpt>
      <trkpt lat="46.27907" lon="6.15946">
        <ele>420.20001220703</ele>
        <time>2013-03-10T14:49:18.000Z</time>
      </trkpt>
      <trkpt lat="46.27909" lon="6.15957">
        <ele>420.60000610352</ele>
        <time>2013-03-10T14:49:20.000Z</time>
      </trkpt>
      <trkpt lat="46.27926" lon="6.15981">
        <ele>416.20001220703</ele>
        <time>2013-03-10T14:49:26.000Z</time>
      </trkpt>
      <trkpt lat="46.27947" lon="6.16004">
        <ele>413.39999389648</ele>
        <time>2013-03-10T14:49:32.000Z</time>
      </trkpt>
      <trkpt lat="46.27953" lon="6.16014">
        <ele>411</ele>
        <time>2013-03-10T14:49:34.000Z</time>
      </trkpt>
      <trkpt lat="46.27966" lon="6.16029">
        <ele>408.60000610352</ele>
        <time>2013-03-10T14:49:38.000Z</time>
      </trkpt>
      <trkpt lat="46.27985" lon="6.16045">
        <ele>405.79998779297</ele>
        <time>2013-03-10T14:49:43.000Z</time>
      </trkpt>
      <trkpt lat="46.27998" lon="6.16059">
        <ele>403.79998779297</ele>
        <time>2013-03-10T14:49:47.000Z</time>
      </trkpt>
      <trkpt lat="46.28012" lon="6.16056">
        <ele>404.79998779297</ele>
        <time>2013-03-10T14:49:52.000Z</time>
      </trkpt>
      <trkpt lat="46.28016" lon="6.16046">
        <ele>405.20001220703</ele>
        <time>2013-03-10T14:49:54.000Z</time>
      </trkpt>
      <trkpt lat="46.28024" lon="6.16013">
        <ele>405.20001220703</ele>
        <time>2013-03-10T14:50:00.000Z</time>
      </trkpt>
      <trkpt lat="46.28031" lon="6.15993">
        <ele>405.20001220703</ele>
        <time>2013-03-10T14:50:04.000Z</time>
      </trkpt>
      <trkpt lat="46.28036" lon="6.15976">
        <ele>407.60000610352</ele>
        <time>2013-03-10T14:50:07.000Z</time>
      </trkpt>
      <trkpt lat="46.28041" lon="6.15959">
        <ele>410</ele>
        <time>2013-03-10T14:50:10.000Z</time>
      </trkpt>
      <trkpt lat="46.28046" lon="6.15944">
        <ele>412</ele>
        <time>2013-03-10T14:50:13.000Z</time>
      </trkpt>
      <trkpt lat="46.2804" lon="6.15934">
        <ele>413.39999389648</ele>
        <time>2013-03-10T14:50:17.000Z</time>
      </trkpt>
      <trkpt lat="46.28025" lon="6.15931">
        <ele>415.39999389648</ele>
        <time>2013-03-10T14:50:21.000Z</time>
      </trkpt>
      <trkpt lat="46.28009" lon="6.15925">
        <ele>415.79998779297</ele>
        <time>2013-03-10T14:50:26.000Z</time>
      </trkpt>
      <trkpt lat="46.27995" lon="6.15918">
        <ele>416.20001220703</ele>
        <time>2013-03-10T14:50:30.000Z</time>
      </trkpt>
      <trkpt lat="46.27978" lon="6.15905">
        <ele>416.20001220703</ele>
        <time>2013-03-10T14:50:35.000Z</time>
      </trkpt>
      <trkpt lat="46.2796" lon="6.15895">
        <ele>415.39999389648</ele>
        <time>2013-03-10T14:50:40.000Z</time>
      </trkpt>
      <trkpt lat="46.27943" lon="6.15883">
        <ele>413.39999389648</ele>
        <time>2013-03-10T14:50:45.000Z</time>
      </trkpt>
      <trkpt lat="46.27927" lon="6.1587">
        <ele>413</ele>
        <time>2013-03-10T14:50:50.000Z</time>
      </trkpt>
      <trkpt lat="46.27916" lon="6.15854">
        <ele>410.60000610352</ele>
        <time>2013-03-10T14:50:54.000Z</time>
      </trkpt>
      <trkpt lat="46.27919" lon="6.15829">
        <ele>410.60000610352</ele>
        <time>2013-03-10T14:50:59.000Z</time>
      </trkpt>
      <trkpt lat="46.27925" lon="6.15805">
        <ele>412</ele>
        <time>2013-03-10T14:51:04.000Z</time>
      </trkpt>
      <trkpt lat="46.27933" lon="6.15787">
        <ele>413</ele>
        <time>2013-03-10T14:51:08.000Z</time>
      </trkpt>
      <trkpt lat="46.2794" lon="6.15768">
        <ele>413.39999389648</ele>
        <time>2013-03-10T14:51:12.000Z</time>
      </trkpt>
      <trkpt lat="46.27945" lon="6.15749">
        <ele>412</ele>
        <time>2013-03-10T14:51:16.000Z</time>
      </trkpt>
      <trkpt lat="46.2795" lon="6.15727">
        <ele>412</ele>
        <time>2013-03-10T14:51:21.000Z</time>
      </trkpt>
      <trkpt lat="46.27951" lon="6.15699">
        <ele>411.39999389648</ele>
        <time>2013-03-10T14:51:26.000Z</time>
      </trkpt>
      <trkpt lat="46.27952" lon="6.15673">
        <ele>411</ele>
        <time>2013-03-10T14:51:30.000Z</time>
      </trkpt>
      <trkpt lat="46.27957" lon="6.15649">
        <ele>409.60000610352</ele>
        <time>2013-03-10T14:51:34.000Z</time>
      </trkpt>
      <trkpt lat="46.27966" lon="6.15618">
        <ele>406.60000610352</ele>
        <time>2013-03-10T14:51:40.000Z</time>
      </trkpt>
      <trkpt lat="46.27972" lon="6.156">
        <ele>405.79998779297</ele>
        <time>2013-03-10T14:51:44.000Z</time>
      </trkpt>
      <trkpt lat="46.2798" lon="6.15573">
        <ele>404.79998779297</ele>
        <time>2013-03-10T14:51:49.000Z</time>
      </trkpt>
      <trkpt lat="46.27985" lon="6.15547">
        <ele>403.79998779297</ele>
        <time>2013-03-10T14:51:54.000Z</time>
      </trkpt>
      <trkpt lat="46.27988" lon="6.1552">
        <ele>403.39999389648</ele>
        <time>2013-03-10T14:51:59.000Z</time>
      </trkpt>
      <trkpt lat="46.27988" lon="6.15498">
        <ele>405.20001220703</ele>
        <time>2013-03-10T14:52:03.000Z</time>
      </trkpt>
      <trkpt lat="46.27991" lon="6.1547">
        <ele>407.20001220703</ele>
        <time>2013-03-10T14:52:08.000Z</time>
      </trkpt>
      <trkpt lat="46.27999" lon="6.15449">
        <ele>409.60000610352</ele>
        <time>2013-03-10T14:52:13.000Z</time>
      </trkpt>
      <trkpt lat="46.28012" lon="6.15429">
        <ele>408.20001220703</ele>
        <time>2013-03-10T14:52:18.000Z</time>
      </trkpt>
      <trkpt lat="46.28025" lon="6.15412">
        <ele>405.79998779297</ele>
        <time>2013-03-10T14:52:23.000Z</time>
      </trkpt>
      <trkpt lat="46.28036" lon="6.15401">
        <ele>406.20001220703</ele>
        <time>2013-03-10T14:52:27.000Z</time>
      </trkpt>
      <trkpt lat="46.28047" lon="6.15388">
        <ele>407.20001220703</ele>
        <time>2013-03-10T14:52:32.000Z</time>
      </trkpt>
      <trkpt lat="46.2806" lon="6.15364">
        <ele>414.39999389648</ele>
        <time>2013-03-10T14:52:37.000Z</time>
      </trkpt>
      <trkpt lat="46.28068" lon="6.15347">
        <ele>417.79998779297</ele>
        <time>2013-03-10T14:52:41.000Z</time>
      </trkpt>
      <trkpt lat="46.28077" lon="6.15331">
        <ele>420.60000610352</ele>
        <time>2013-03-10T14:52:45.000Z</time>
      </trkpt>
      <trkpt lat="46.28087" lon="6.15308">
        <ele>413.39999389648</ele>
        <time>2013-03-10T14:52:50.000Z</time>
      </trkpt>
      <trkpt lat="46.28084" lon="6.15282">
        <ele>415.79998779297</ele>
        <time>2013-03-10T14:52:54.000Z</time>
      </trkpt>
      <trkpt lat="46.28081" lon="6.15246">
        <ele>418.60000610352</ele>
        <time>2013-03-10T14:53:01.000Z</time>
      </trkpt>
      <trkpt lat="46.28082" lon="6.15242">
        <ele>416.20001220703</ele>
        <time>2013-03-10T14:53:02.000Z</time>
      </trkpt>
      <trkpt lat="46.28092" lon="6.15213">
        <ele>406.60000610352</ele>
        <time>2013-03-10T14:53:08.000Z</time>
      </trkpt>
      <trkpt lat="46.28096" lon="6.15193">
        <ele>404.79998779297</ele>
        <time>2013-03-10T14:53:12.000Z</time>
      </trkpt>
      <trkpt lat="46.28099" lon="6.15166">
        <ele>407.20001220703</ele>
        <time>2013-03-10T14:53:17.000Z</time>
      </trkpt>
      <trkpt lat="46.281" lon="6.15141">
        <ele>411.39999389648</ele>
        <time>2013-03-10T14:53:22.000Z</time>
      </trkpt>
      <trkpt lat="46.28102" lon="6.15116">
        <ele>412</ele>
        <time>2013-03-10T14:53:26.000Z</time>
      </trkpt>
      <trkpt lat="46.28104" lon="6.151">
        <ele>408.20001220703</ele>
        <time>2013-03-10T14:53:29.000Z</time>
      </trkpt>
      <trkpt lat="46.28111" lon="6.15084">
        <ele>409</ele>
        <time>2013-03-10T14:53:33.000Z</time>
      </trkpt>
      <trkpt lat="46.28116" lon="6.15063">
        <ele>401.79998779297</ele>
        <time>2013-03-10T14:53:38.000Z</time>
      </trkpt>
      <trkpt lat="46.28126" lon="6.15043">
        <ele>395.20001220703</ele>
        <time>2013-03-10T14:53:43.000Z</time>
      </trkpt>
      <trkpt lat="46.28141" lon="6.15031">
        <ele>392.79998779297</ele>
        <time>2013-03-10T14:53:47.000Z</time>
      </trkpt>
      <trkpt lat="46.28154" lon="6.15026">
        <ele>394.20001220703</ele>
        <time>2013-03-10T14:53:51.000Z</time>
      </trkpt>
      <trkpt lat="46.28171" lon="6.15019">
        <ele>398</ele>
        <time>2013-03-10T14:53:56.000Z</time>
      </trkpt>
      <trkpt lat="46.28187" lon="6.15004">
        <ele>398</ele>
        <time>2013-03-10T14:54:01.000Z</time>
      </trkpt>
      <trkpt lat="46.28205" lon="6.14994">
        <ele>399</ele>
        <time>2013-03-10T14:54:06.000Z</time>
      </trkpt>
      <trkpt lat="46.28216" lon="6.14983">
        <ele>398.60000610352</ele>
        <time>2013-03-10T14:54:10.000Z</time>
      </trkpt>
      <trkpt lat="46.28223" lon="6.14974">
        <ele>397</ele>
        <time>2013-03-10T14:54:13.000Z</time>
      </trkpt>
      <trkpt lat="46.28231" lon="6.14964">
        <ele>396.60000610352</ele>
        <time>2013-03-10T14:54:16.000Z</time>
      </trkpt>
      <trkpt lat="46.28244" lon="6.14953">
        <ele>396.20001220703</ele>
        <time>2013-03-10T14:54:20.000Z</time>
      </trkpt>
      <trkpt lat="46.2825" lon="6.14949">
        <ele>395.60000610352</ele>
        <time>2013-03-10T14:54:22.000Z</time>
      </trkpt>
      <trkpt lat="46.28252" lon="6.14937">
        <ele>395.60000610352</ele>
        <time>2013-03-10T14:54:25.000Z</time>
      </trkpt>
      <trkpt lat="46.28243" lon="6.14929">
        <ele>395.20001220703</ele>
        <time>2013-03-10T14:54:30.000Z</time>
      </trkpt>
      <trkpt lat="46.28228" lon="6.14936">
        <ele>394.60000610352</ele>
        <time>2013-03-10T14:54:35.000Z</time>
      </trkpt>
      <trkpt lat="46.28213" lon="6.14949">
        <ele>396.60000610352</ele>
        <time>2013-03-10T14:54:39.000Z</time>
      </trkpt>
      <trkpt lat="46.28201" lon="6.14957">
        <ele>398</ele>
        <time>2013-03-10T14:54:42.000Z</time>
      </trkpt>
      <trkpt lat="46.28188" lon="6.14962">
        <ele>400</ele>
        <time>2013-03-10T14:54:45.000Z</time>
      </trkpt>
      <trkpt lat="46.28172" lon="6.14968">
        <ele>402.79998779297</ele>
        <time>2013-03-10T14:54:49.000Z</time>
      </trkpt>
      <trkpt lat="46.28157" lon="6.14968">
        <ele>403.39999389648</ele>
        <time>2013-03-10T14:54:53.000Z</time>
      </trkpt>
      <trkpt lat="46.28152" lon="6.1496">
        <ele>401.39999389648</ele>
        <time>2013-03-10T14:54:55.000Z</time>
      </trkpt>
      <trkpt lat="46.2816" lon="6.1494">
        <ele>397</ele>
        <time>2013-03-10T14:54:59.000Z</time>
      </trkpt>
      <trkpt lat="46.28163" lon="6.14936">
        <ele>396.60000610352</ele>
        <time>2013-03-10T14:55:00.000Z</time>
      </trkpt>
      <trkpt lat="46.28169" lon="6.14921">
        <ele>396.20001220703</ele>
        <time>2013-03-10T14:55:03.000Z</time>
      </trkpt>
      <trkpt lat="46.28182" lon="6.14896">
        <ele>400</ele>
        <time>2013-03-10T14:55:08.000Z</time>
      </trkpt>
      <trkpt lat="46.28185" lon="6.14892">
        <ele>400</ele>
        <time>2013-03-10T14:55:09.000Z</time>
      </trkpt>
      <trkpt lat="46.28194" lon="6.14878">
        <ele>401</ele>
        <time>2013-03-10T14:55:12.000Z</time>
      </trkpt>
      <trkpt lat="46.28202" lon="6.14868">
        <ele>402.39999389648</ele>
        <time>2013-03-10T14:55:15.000Z</time>
      </trkpt>
      <trkpt lat="46.28215" lon="6.1484">
        <ele>410</ele>
        <time>2013-03-10T14:55:21.000Z</time>
      </trkpt>
      <trkpt lat="46.28223" lon="6.14818">
        <ele>413.79998779297</ele>
        <time>2013-03-10T14:55:25.000Z</time>
      </trkpt>
      <trkpt lat="46.28226" lon="6.14802">
        <ele>415.79998779297</ele>
        <time>2013-03-10T14:55:28.000Z</time>
      </trkpt>
      <trkpt lat="46.28225" lon="6.14775">
        <ele>418.60000610352</ele>
        <time>2013-03-10T14:55:33.000Z</time>
      </trkpt>
      <trkpt lat="46.28223" lon="6.14743">
        <ele>416.79998779297</ele>
        <time>2013-03-10T14:55:39.000Z</time>
      </trkpt>
      <trkpt lat="46.28223" lon="6.14722">
        <ele>414.79998779297</ele>
        <time>2013-03-10T14:55:43.000Z</time>
      </trkpt>
      <trkpt lat="46.28219" lon="6.14695">
        <ele>415.39999389648</ele>
        <time>2013-03-10T14:55:48.000Z</time>
      </trkpt>
      <trkpt lat="46.28216" lon="6.14666">
        <ele>412.39999389648</ele>
        <time>2013-03-10T14:55:53.000Z</time>
      </trkpt>
      <trkpt lat="46.28216" lon="6.14649">
        <ele>412</ele>
        <time>2013-03-10T14:55:56.000Z</time>
      </trkpt>
      <trkpt lat="46.28215" lon="6.14627">
        <ele>409</ele>
        <time>2013-03-10T14:56:00.000Z</time>
      </trkpt>
      <trkpt lat="46.28208" lon="6.14599">
        <ele>409</ele>
        <time>2013-03-10T14:56:05.000Z</time>
      </trkpt>
      <trkpt lat="46.28201" lon="6.14577">
        <ele>410</ele>
        <time>2013-03-10T14:56:09.000Z</time>
      </trkpt>
      <trkpt lat="46.28194" lon="6.14556">
        <ele>409.60000610352</ele>
        <time>2013-03-10T14:56:13.000Z</time>
      </trkpt>
      <trkpt lat="46.28192" lon="6.14529">
        <ele>410.60000610352</ele>
        <time>2013-03-10T14:56:18.000Z</time>
      </trkpt>
      <trkpt lat="46.28189" lon="6.14513">
        <ele>410.60000610352</ele>
        <time>2013-03-10T14:56:21.000Z</time>
      </trkpt>
      <trkpt lat="46.28189" lon="6.14485">
        <ele>408.60000610352</ele>
        <time>2013-03-10T14:56:27.000Z</time>
      </trkpt>
      <trkpt lat="46.28188" lon="6.14464">
        <ele>409.60000610352</ele>
        <time>2013-03-10T14:56:31.000Z</time>
      </trkpt>
      <trkpt lat="46.28185" lon="6.14437">
        <ele>410.60000610352</ele>
        <time>2013-03-10T14:56:36.000Z</time>
      </trkpt>
      <trkpt lat="46.28166" lon="6.14424">
        <ele>415.39999389648</ele>
        <time>2013-03-10T14:56:41.000Z</time>
      </trkpt>
      <trkpt lat="46.2815" lon="6.1442">
        <ele>417.20001220703</ele>
        <time>2013-03-10T14:56:45.000Z</time>
      </trkpt>
      <trkpt lat="46.28126" lon="6.14414">
        <ele>416.79998779297</ele>
        <time>2013-03-10T14:56:51.000Z</time>
      </trkpt>
      <trkpt lat="46.2811" lon="6.14422">
        <ele>415.39999389648</ele>
        <time>2013-03-10T14:56:55.000Z</time>
      </trkpt>
      <trkpt lat="46.28106" lon="6.14425">
        <ele>415.39999389648</ele>
        <time>2013-03-10T14:56:56.000Z</time>
      </trkpt>
      <trkpt lat="46.28097" lon="6.1444">
        <ele>411.39999389648</ele>
        <time>2013-03-10T14:56:59.000Z</time>
      </trkpt>
      <trkpt lat="46.28095" lon="6.14469">
        <ele>405.79998779297</ele>
        <time>2013-03-10T14:57:03.000Z</time>
      </trkpt>
      <trkpt lat="46.28095" lon="6.14483">
        <ele>403.39999389648</ele>
        <time>2013-03-10T14:57:05.000Z</time>
      </trkpt>
      <trkpt lat="46.28098" lon="6.14509">
        <ele>400</ele>
        <time>2013-03-10T14:57:09.000Z</time>
      </trkpt>
      <trkpt lat="46.28105" lon="6.14545">
        <ele>399</ele>
        <time>2013-03-10T14:57:15.000Z</time>
      </trkpt>
      <trkpt lat="46.2811" lon="6.14561">
        <ele>401.79998779297</ele>
        <time>2013-03-10T14:57:18.000Z</time>
      </trkpt>
      <trkpt lat="46.28116" lon="6.14586">
        <ele>402.79998779297</ele>
        <time>2013-03-10T14:57:22.000Z</time>
      </trkpt>
      <trkpt lat="46.28121" lon="6.14616">
        <ele>403.39999389648</ele>
        <time>2013-03-10T14:57:27.000Z</time>
      </trkpt>
      <trkpt lat="46.28122" lon="6.14633">
        <ele>402.39999389648</ele>
        <time>2013-03-10T14:57:30.000Z</time>
      </trkpt>
      <trkpt lat="46.28121" lon="6.14668">
        <ele>401</ele>
        <time>2013-03-10T14:57:36.000Z</time>
      </trkpt>
      <trkpt lat="46.2812" lon="6.14681">
        <ele>401</ele>
        <time>2013-03-10T14:57:38.000Z</time>
      </trkpt>
      <trkpt lat="46.28119" lon="6.14707">
        <ele>401.79998779297</ele>
        <time>2013-03-10T14:57:42.000Z</time>
      </trkpt>
      <trkpt lat="46.2812" lon="6.1474">
        <ele>400</ele>
        <time>2013-03-10T14:57:48.000Z</time>
      </trkpt>
      <trkpt lat="46.28116" lon="6.14767">
        <ele>399</ele>
        <time>2013-03-10T14:57:53.000Z</time>
      </trkpt>
      <trkpt lat="46.28115" lon="6.14772">
        <ele>398.60000610352</ele>
        <time>2013-03-10T14:57:54.000Z</time>
      </trkpt>
      <trkpt lat="46.28105" lon="6.148">
        <ele>399.39999389648</ele>
        <time>2013-03-10T14:58:00.000Z</time>
      </trkpt>
      <trkpt lat="46.28097" lon="6.14824">
        <ele>400.39999389648</ele>
        <time>2013-03-10T14:58:05.000Z</time>
      </trkpt>
      <trkpt lat="46.28083" lon="6.14855">
        <ele>401.79998779297</ele>
        <time>2013-03-10T14:58:12.000Z</time>
      </trkpt>
      <trkpt lat="46.28068" lon="6.14871">
        <ele>402.79998779297</ele>
        <time>2013-03-10T14:58:17.000Z</time>
      </trkpt>
      <trkpt lat="46.28051" lon="6.14883">
        <ele>404.20001220703</ele>
        <time>2013-03-10T14:58:22.000Z</time>
      </trkpt>
      <trkpt lat="46.28037" lon="6.14893">
        <ele>404.79998779297</ele>
        <time>2013-03-10T14:58:26.000Z</time>
      </trkpt>
      <trkpt lat="46.28029" lon="6.14898">
        <ele>407.60000610352</ele>
        <time>2013-03-10T14:58:29.000Z</time>
      </trkpt>
      <trkpt lat="46.28015" lon="6.14914">
        <ele>414.39999389648</ele>
        <time>2013-03-10T14:58:34.000Z</time>
      </trkpt>
      <trkpt lat="46.28002" lon="6.14924">
        <ele>418.20001220703</ele>
        <time>2013-03-10T14:58:38.000Z</time>
      </trkpt>
      <trkpt lat="46.27983" lon="6.14934">
        <ele>415.79998779297</ele>
        <time>2013-03-10T14:58:43.000Z</time>
      </trkpt>
      <trkpt lat="46.27968" lon="6.14943">
        <ele>414.39999389648</ele>
        <time>2013-03-10T14:58:47.000Z</time>
      </trkpt>
      <trkpt lat="46.27964" lon="6.14946">
        <ele>413.39999389648</ele>
        <time>2013-03-10T14:58:48.000Z</time>
      </trkpt>
      <trkpt lat="46.27946" lon="6.14971">
        <ele>419.60000610352</ele>
        <time>2013-03-10T14:58:54.000Z</time>
      </trkpt>
      <trkpt lat="46.27938" lon="6.14979">
        <ele>414.79998779297</ele>
        <time>2013-03-10T14:58:56.000Z</time>
      </trkpt>
      <trkpt lat="46.27934" lon="6.14999">
        <ele>409.60000610352</ele>
        <time>2013-03-10T14:59:00.000Z</time>
      </trkpt>
      <trkpt lat="46.27938" lon="6.15028">
        <ele>406.20001220703</ele>
        <time>2013-03-10T14:59:05.000Z</time>
      </trkpt>
      <trkpt lat="46.27939" lon="6.15048">
        <ele>406.60000610352</ele>
        <time>2013-03-10T14:59:08.000Z</time>
      </trkpt>
      <trkpt lat="46.27936" lon="6.15063">
        <ele>402.79998779297</ele>
        <time>2013-03-10T14:59:11.000Z</time>
      </trkpt>
      <trkpt lat="46.27934" lon="6.15089">
        <ele>401.79998779297</ele>
        <time>2013-03-10T14:59:16.000Z</time>
      </trkpt>
      <trkpt lat="46.27931" lon="6.15108">
        <ele>402.39999389648</ele>
        <time>2013-03-10T14:59:20.000Z</time>
      </trkpt>
      <trkpt lat="46.27929" lon="6.15117">
        <ele>401.79998779297</ele>
        <time>2013-03-10T14:59:22.000Z</time>
      </trkpt>
      <trkpt lat="46.27933" lon="6.15136">
        <ele>399.39999389648</ele>
        <time>2013-03-10T14:59:26.000Z</time>
      </trkpt>
      <trkpt lat="46.27933" lon="6.15165">
        <ele>397.60000610352</ele>
        <time>2013-03-10T14:59:31.000Z</time>
      </trkpt>
      <trkpt lat="46.27935" lon="6.15184">
        <ele>397</ele>
        <time>2013-03-10T14:59:35.000Z</time>
      </trkpt>
      <trkpt lat="46.27937" lon="6.15197">
        <ele>395.20001220703</ele>
        <time>2013-03-10T14:59:38.000Z</time>
      </trkpt>
      <trkpt lat="46.27931" lon="6.15222">
        <ele>401.79998779297</ele>
        <time>2013-03-10T14:59:43.000Z</time>
      </trkpt>
      <trkpt lat="46.27929" lon="6.15232">
        <ele>401.79998779297</ele>
        <time>2013-03-10T14:59:45.000Z</time>
      </trkpt>
      <trkpt lat="46.27917" lon="6.15262">
        <ele>401.39999389648</ele>
        <time>2013-03-10T14:59:51.000Z</time>
      </trkpt>
      <trkpt lat="46.27905" lon="6.15286">
        <ele>400</ele>
        <time>2013-03-10T14:59:56.000Z</time>
      </trkpt>
      <trkpt lat="46.27893" lon="6.15313">
        <ele>398</ele>
        <time>2013-03-10T15:00:02.000Z</time>
      </trkpt>
      <trkpt lat="46.27879" lon="6.15345">
        <ele>397.60000610352</ele>
        <time>2013-03-10T15:00:09.000Z</time>
      </trkpt>
      <trkpt lat="46.27869" lon="6.1537">
        <ele>396.60000610352</ele>
        <time>2013-03-10T15:00:14.000Z</time>
      </trkpt>
      <trkpt lat="46.2787" lon="6.15385">
        <ele>397</ele>
        <time>2013-03-10T15:00:17.000Z</time>
      </trkpt>
      <trkpt lat="46.27872" lon="6.15389">
        <ele>396.60000610352</ele>
        <time>2013-03-10T15:00:18.000Z</time>
      </trkpt>
      <trkpt lat="46.27894" lon="6.15413">
        <ele>395.60000610352</ele>
        <time>2013-03-10T15:00:25.000Z</time>
      </trkpt>
      <trkpt lat="46.27906" lon="6.15425">
        <ele>396.20001220703</ele>
        <time>2013-03-10T15:00:29.000Z</time>
      </trkpt>
      <trkpt lat="46.27915" lon="6.15435">
        <ele>395.20001220703</ele>
        <time>2013-03-10T15:00:32.000Z</time>
      </trkpt>
      <trkpt lat="46.27917" lon="6.15438">
        <ele>394.60000610352</ele>
        <time>2013-03-10T15:00:33.000Z</time>
      </trkpt>
      <trkpt lat="46.27925" lon="6.15464">
        <ele>390.79998779297</ele>
        <time>2013-03-10T15:00:39.000Z</time>
      </trkpt>
      <trkpt lat="46.27927" lon="6.15484">
        <ele>389.39999389648</ele>
        <time>2013-03-10T15:00:43.000Z</time>
      </trkpt>
      <trkpt lat="46.27935" lon="6.15508">
        <ele>388.79998779297</ele>
        <time>2013-03-10T15:00:48.000Z</time>
      </trkpt>
      <trkpt lat="46.27941" lon="6.15526">
        <ele>390.79998779297</ele>
        <time>2013-03-10T15:00:52.000Z</time>
      </trkpt>
      <trkpt lat="46.27947" lon="6.15543">
        <ele>391.79998779297</ele>
        <time>2013-03-10T15:00:56.000Z</time>
      </trkpt>
      <trkpt lat="46.27951" lon="6.15562">
        <ele>393.60000610352</ele>
        <time>2013-03-10T15:01:00.000Z</time>
      </trkpt>
      <trkpt lat="46.27953" lon="6.1558">
        <ele>393.60000610352</ele>
        <time>2013-03-10T15:01:04.000Z</time>
      </trkpt>
      <trkpt lat="46.27953" lon="6.15599">
        <ele>395.20001220703</ele>
        <time>2013-03-10T15:01:09.000Z</time>
      </trkpt>
      <trkpt lat="46.27951" lon="6.15618">
        <ele>398</ele>
        <time>2013-03-10T15:01:14.000Z</time>
      </trkpt>
      <trkpt lat="46.27951" lon="6.15633">
        <ele>401.39999389648</ele>
        <time>2013-03-10T15:01:19.000Z</time>
      </trkpt>
      <trkpt lat="46.27949" lon="6.15649">
        <ele>407.60000610352</ele>
        <time>2013-03-10T15:01:24.000Z</time>
      </trkpt>
      <trkpt lat="46.27949" lon="6.15654">
        <ele>409</ele>
        <time>2013-03-10T15:01:26.000Z</time>
      </trkpt>
      <trkpt lat="46.27938" lon="6.15662">
        <ele>410.60000610352</ele>
        <time>2013-03-10T15:01:31.000Z</time>
      </trkpt>
      <trkpt lat="46.27924" lon="6.1567">
        <ele>413</ele>
        <time>2013-03-10T15:01:36.000Z</time>
      </trkpt>
      <trkpt lat="46.27913" lon="6.15681">
        <ele>415.39999389648</ele>
        <time>2013-03-10T15:01:40.000Z</time>
      </trkpt>
      <trkpt lat="46.27906" lon="6.157">
        <ele>418.20001220703</ele>
        <time>2013-03-10T15:01:45.000Z</time>
      </trkpt>
      <trkpt lat="46.279" lon="6.15718">
        <ele>420.20001220703</ele>
        <time>2013-03-10T15:01:49.000Z</time>
      </trkpt>
      <trkpt lat="46.27894" lon="6.15736">
        <ele>418.60000610352</ele>
        <time>2013-03-10T15:01:53.000Z</time>
      </trkpt>
      <trkpt lat="46.27886" lon="6.15754">
        <ele>416.79998779297</ele>
        <time>2013-03-10T15:01:57.000Z</time>
      </trkpt>
      <trkpt lat="46.27884" lon="6.15773">
        <ele>416.20001220703</ele>
        <time>2013-03-10T15:02:01.000Z</time>
      </trkpt>
      <trkpt lat="46.27888" lon="6.15792">
        <ele>415.39999389648</ele>
        <time>2013-03-10T15:02:05.000Z</time>
      </trkpt>
      <trkpt lat="46.27895" lon="6.15813">
        <ele>414.39999389648</ele>
        <time>2013-03-10T15:02:09.000Z</time>
      </trkpt>
      <trkpt lat="46.27902" lon="6.15838">
        <ele>412</ele>
        <time>2013-03-10T15:02:14.000Z</time>
      </trkpt>
      <trkpt lat="46.27912" lon="6.15855">
        <ele>411.39999389648</ele>
        <time>2013-03-10T15:02:18.000Z</time>
      </trkpt>
      <trkpt lat="46.27917" lon="6.15879">
        <ele>411.39999389648</ele>
        <time>2013-03-10T15:02:23.000Z</time>
      </trkpt>
      <trkpt lat="46.27917" lon="6.15891">
        <ele>411.39999389648</ele>
        <time>2013-03-10T15:02:25.000Z</time>
      </trkpt>
      <trkpt lat="46.27912" lon="6.15926">
        <ele>412.39999389648</ele>
        <time>2013-03-10T15:02:31.000Z</time>
      </trkpt>
      <trkpt lat="46.27911" lon="6.15932">
        <ele>412.39999389648</ele>
        <time>2013-03-10T15:02:32.000Z</time>
      </trkpt>
      <trkpt lat="46.27912" lon="6.15953">
        <ele>412.39999389648</ele>
        <time>2013-03-10T15:02:36.000Z</time>
      </trkpt>
      <trkpt lat="46.27925" lon="6.15972">
        <ele>411.39999389648</ele>
        <time>2013-03-10T15:02:41.000Z</time>
      </trkpt>
      <trkpt lat="46.27937" lon="6.1599">
        <ele>408.20001220703</ele>
        <time>2013-03-10T15:02:45.000Z</time>
      </trkpt>
      <trkpt lat="46.27941" lon="6.15994">
        <ele>408.20001220703</ele>
        <time>2013-03-10T15:02:46.000Z</time>
      </trkpt>
      <trkpt lat="46.27954" lon="6.16013">
        <ele>405.20001220703</ele>
        <time>2013-03-10T15:02:50.000Z</time>
      </trkpt>
      <trkpt lat="46.27968" lon="6.16029">
        <ele>401.79998779297</ele>
        <time>2013-03-10T15:02:54.000Z</time>
      </trkpt>
      <trkpt lat="46.27987" lon="6.16049">
        <ele>398.60000610352</ele>
        <time>2013-03-10T15:02:59.000Z</time>
      </trkpt>
      <trkpt lat="46.28001" lon="6.16062">
        <ele>398</ele>
        <time>2013-03-10T15:03:03.000Z</time>
      </trkpt>
      <trkpt lat="46.28016" lon="6.16076">
        <ele>396.60000610352</ele>
        <time>2013-03-10T15:03:07.000Z</time>
      </trkpt>
      <trkpt lat="46.2802" lon="6.1608">
        <ele>396.20001220703</ele>
        <time>2013-03-10T15:03:08.000Z</time>
      </trkpt>
      <trkpt lat="46.28035" lon="6.16098">
        <ele>395.60000610352</ele>
        <time>2013-03-10T15:03:13.000Z</time>
      </trkpt>
      <trkpt lat="46.28038" lon="6.16104">
        <ele>396.20001220703</ele>
        <time>2013-03-10T15:03:16.000Z</time>
      </trkpt>
      <trkpt lat="46.28043" lon="6.16109">
        <ele>397</ele>
        <time>2013-03-10T15:03:23.000Z</time>
      </trkpt>
      <trkpt lat="46.28044" lon="6.16108">
        <ele>398</ele>
        <time>2013-03-10T15:03:29.000Z</time>
      </trkpt>
      <trkpt lat="46.28045" lon="6.16109">
        <ele>399</ele>
        <time>2013-03-10T15:03:31.000Z</time>
      </trkpt>
    </trkseg>
  </trk>
</gpx>